Time;durP1;ratioP1;P1;durP2;ratioP2;P2;SDS_P1;SDS_P2;PMS_P1;PMS_P2;Temp;Humidity;BMP_temperature;BMP_pressure;BME280_temperature;BME280_humidity;BME280_pressure;Samples;Min_cycle;Max_cycle;Signal;HPM_P1;HPM_P2
2022/03/15 00:01:29;;;;;;;10.90;8.60;;;;;;;0.67;100.00;98238.00;4966389;28;20227;-56
2022/03/15 00:03:58;;;;;;;11.50;8.03;;;;;;;0.60;100.00;98248.94;4988355;28;20796;-51
2022/03/15 00:06:26;;;;;;;10.80;8.87;;;;;;;0.67;100.00;98240.63;4992735;28;20318;-53
2022/03/15 00:08:54;;;;;;;9.47;8.57;;;;;;;0.63;100.00;98251.34;4954210;28;20231;-56
2022/03/15 00:11:23;;;;;;;8.83;6.80;;;;;;;0.63;100.00;98244.34;4986768;28;20620;-57
2022/03/15 00:13:52;;;;;;;11.97;7.80;;;;;;;0.59;100.00;98247.28;4986010;28;20328;-58
2022/03/15 00:16:20;;;;;;;10.60;7.80;;;;;;;0.49;100.00;98250.41;4968834;28;20227;-58
2022/03/15 00:18:48;;;;;;;9.90;8.40;;;;;;;0.57;100.00;98252.56;4979879;28;20965;-55
2022/03/15 00:21:18;;;;;;;13.67;8.17;;;;;;;0.51;100.00;98251.16;4994709;28;20312;-56
2022/03/15 00:23:46;;;;;;;9.80;7.97;;;;;;;0.49;100.00;98253.03;4954897;28;20214;-56
2022/03/15 00:26:14;;;;;;;12.93;8.57;;;;;;;0.48;100.00;98251.34;4988949;28;20210;-59
2022/03/15 00:28:44;;;;;;;7.90;7.13;;;;;;;0.52;100.00;98245.00;4979234;28;20224;-58
2022/03/15 00:31:11;;;;;;;8.53;7.47;;;;;;;0.59;100.00;98242.06;4971895;28;20664;-55
2022/03/15 00:33:40;;;;;;;10.57;7.13;;;;;;;0.45;100.00;98241.09;4978474;28;20204;-53
2022/03/15 00:36:08;;;;;;;8.43;7.20;;;;;;;0.40;100.00;98256.19;4991064;28;20219;-53
2022/03/15 00:38:36;;;;;;;10.87;7.40;;;;;;;0.36;100.00;98246.91;4949384;28;20228;-53
2022/03/15 00:41:04;;;;;;;8.97;8.07;;;;;;;0.45;100.00;98242.91;4990209;28;20266;-54
2022/03/15 00:43:32;;;;;;;8.13;7.23;;;;;;;0.45;100.00;98243.72;4973463;28;20213;-55
2022/03/15 00:46:02;;;;;;;8.00;7.20;;;;;;;0.48;100.00;98247.91;4970794;28;20213;-55
2022/03/15 00:48:30;;;;;;;9.23;7.67;;;;;;;0.52;100.00;98242.41;4981744;28;20240;-57
2022/03/15 00:50:58;;;;;;;10.83;7.73;;;;;;;0.55;100.00;98244.81;4994912;28;20209;-56
2022/03/15 00:53:27;;;;;;;8.07;7.27;;;;;;;0.58;100.00;98249.03;4971946;28;20215;-57
2022/03/15 00:55:55;;;;;;;10.07;8.37;;;;;;;0.52;100.00;98226.75;4982031;28;20213;-51
2022/03/15 00:58:23;;;;;;;11.73;8.07;;;;;;;0.48;100.00;98237.50;4973153;28;20227;-56
2022/03/15 01:00:51;;;;;;;9.77;8.00;;;;;;;0.47;100.00;98236.63;4972338;28;20937;-58
2022/03/15 01:03:21;;;;;;;10.53;7.90;;;;;;;0.43;100.00;98229.94;4978013;28;20295;-55
2022/03/15 01:05:50;;;;;;;11.10;8.23;;;;;;;0.41;100.00;98216.16;4986178;28;20221;-58
2022/03/15 01:08:18;;;;;;;9.00;7.80;;;;;;;0.41;100.00;98226.59;4986466;28;20212;-55
2022/03/15 01:10:46;;;;;;;8.07;7.37;;;;;;;0.43;100.00;98212.53;4951610;28;20213;-55
2022/03/15 01:13:14;;;;;;;8.63;7.90;;;;;;;0.42;100.00;98217.84;4983492;28;20284;-57
2022/03/15 01:15:44;;;;;;;10.33;8.50;;;;;;;0.32;100.00;98227.16;4987257;28;20208;-58
2022/03/15 01:18:13;;;;;;;9.40;7.83;;;;;;;0.33;100.00;98221.84;4966214;28;20239;-57
2022/03/15 01:20:43;;;;;;;8.23;7.43;;;;;;;0.24;100.00;98212.81;4984130;28;20235;-57
2022/03/15 01:23:12;;;;;;;10.73;8.90;;;;;;;0.21;100.00;98212.16;4983637;28;20312;-58
2022/03/15 01:25:40;;;;;;;8.43;7.47;;;;;;;0.23;100.00;98192.06;4950213;28;20208;-57
2022/03/15 01:28:08;;;;;;;8.63;7.80;;;;;;;0.21;100.00;98210.41;4965866;28;20228;-56
2022/03/15 01:30:36;;;;;;;9.40;8.37;;;;;;;0.24;100.00;98188.50;4986279;28;20210;-57
2022/03/15 01:33:05;;;;;;;8.23;6.90;;;;;;;0.26;100.00;98184.91;4964042;28;20204;-57
2022/03/15 01:35:33;;;;;;;8.40;7.60;;;;;;;0.31;100.00;98191.59;4973927;28;20209;-56
2022/03/15 01:38:03;;;;;;;8.13;7.03;;;;;;;0.30;100.00;98195.13;4981572;28;20307;-55
2022/03/15 01:40:31;;;;;;;7.87;7.10;;;;;;;0.23;100.00;98187.69;4950266;28;20237;-54
2022/03/15 01:43:00;;;;;;;8.87;7.43;;;;;;;0.26;100.00;98192.72;4967519;28;20225;-51
2022/03/15 01:45:32;;;;;;;10.67;7.10;;;;;;;0.22;100.00;98188.63;4985188;28;20210;-57
2022/03/15 01:48:01;;;;;;;7.63;6.97;;;;;;;0.19;100.00;98194.03;4970585;28;20988;-56
2022/03/15 01:50:29;;;;;;;8.00;7.20;;;;;;;0.31;100.00;98188.97;4982699;28;20210;-58
2022/03/15 01:52:58;;;;;;;10.77;7.13;;;;;;;0.21;100.00;98186.09;4983671;28;20268;-61
2022/03/15 01:55:28;;;;;;;10.30;7.77;;;;;;;0.20;100.00;98187.88;4988205;28;20215;-54
2022/03/15 01:57:58;;;;;;;11.80;8.00;;;;;;;0.20;100.00;98185.28;4939782;28;20227;-56
2022/03/15 02:00:26;;;;;;;10.43;7.07;;;;;;;0.17;100.00;98180.22;4986456;28;21194;-57
2022/03/15 02:02:55;;;;;;;8.23;7.40;;;;;;;0.27;100.00;98175.28;4965972;28;20344;-57
2022/03/15 02:05:24;;;;;;;8.63;6.83;;;;;;;0.22;100.00;98172.13;4977258;28;20277;-54
2022/03/15 02:07:52;;;;;;;8.90;7.67;;;;;;;0.24;100.00;98175.47;4985647;28;20225;-58
2022/03/15 02:10:20;;;;;;;8.23;7.10;;;;;;;0.14;100.00;98169.97;4985129;28;20197;-54
2022/03/15 02:12:50;;;;;;;8.30;7.40;;;;;;;0.12;100.00;98174.44;4944761;28;20252;-57
2022/03/15 02:15:18;;;;;;;8.87;7.17;;;;;;;0.04;100.00;98163.66;4985586;28;20235;-58
2022/03/15 02:17:46;;;;;;;8.87;8.03;;;;;;;0.12;100.00;98169.25;4978823;28;20230;-59
2022/03/15 02:20:16;;;;;;;9.27;7.43;;;;;;;-0.01;100.00;98171.75;4968299;28;20209;-54
2022/03/15 02:22:44;;;;;;;7.50;6.80;;;;;;;-0.01;100.00;98156.97;4982451;28;20335;-57
2022/03/15 02:25:13;;;;;;;7.93;7.20;;;;;;;0.01;100.00;98162.09;4956283;28;20314;-55
2022/03/15 02:27:42;;;;;;;7.53;6.83;;;;;;;-0.13;100.00;98152.50;4950245;28;20822;-60
2022/03/15 02:30:11;;;;;;;11.37;8.00;;;;;;;-0.16;100.00;98147.50;4967364;28;20240;-52
2022/03/15 02:32:40;;;;;;;10.33;7.40;;;;;;;-0.07;100.00;98152.13;4982981;28;20250;-55
2022/03/15 02:35:09;;;;;;;9.67;6.87;;;;;;;0.00;100.00;98142.19;4960502;28;20209;-58
2022/03/15 02:37:39;;;;;;;9.87;7.70;;;;;;;-0.20;100.00;98149.44;4976760;28;20222;-54
2022/03/15 02:40:09;;;;;;;7.77;7.07;;;;;;;-0.11;100.00;98148.03;4987318;28;20206;-56
2022/03/15 02:42:37;;;;;;;7.83;7.07;;;;;;;0.01;100.00;98156.03;4948578;28;20922;-54
2022/03/15 02:45:06;;;;;;;8.83;7.93;;;;;;;0.03;100.00;98146.34;4970331;28;20205;-57
2022/03/15 02:47:35;;;;;;;8.67;7.50;;;;;;;-0.06;100.00;98148.59;4983652;28;20223;-51
2022/03/15 02:50:03;;;;;;;11.10;7.67;;;;;;;0.11;100.00;98139.75;4966978;28;20216;-57
2022/03/15 02:52:32;;;;;;;7.97;7.17;;;;;;;0.05;100.00;98141.88;4968651;28;20215;-58
2022/03/15 02:55:02;;;;;;;7.30;6.57;;;;;;;-0.01;100.00;98146.53;4984947;28;20236;-54
2022/03/15 02:57:31;;;;;;;7.83;6.90;;;;;;;0.05;100.00;98141.88;4950739;28;20224;-55
2022/03/15 02:59:59;;;;;;;8.30;6.77;;;;;;;0.09;100.00;98140.75;4986315;28;20684;-55
2022/03/15 03:02:28;;;;;;;7.53;6.93;;;;;;;0.07;100.00;98143.47;4972491;28;20259;-55
2022/03/15 03:04:56;;;;;;;9.00;7.17;;;;;;;0.20;100.00;98140.09;4988180;28;20209;-54
2022/03/15 03:07:25;;;;;;;9.13;8.33;;;;;;;0.17;100.00;98143.72;4952787;28;20327;-57
2022/03/15 03:09:53;;;;;;;7.97;7.17;;;;;;;0.17;100.00;98143.72;4993203;28;20292;-52
2022/03/15 03:12:25;;;;;;;7.77;6.97;;;;;;;0.12;100.00;98140.56;4949892;28;20323;-58
2022/03/15 03:14:54;;;;;;;10.47;7.90;;;;;;;0.12;100.00;98146.63;4989367;28;20247;-56
2022/03/15 03:17:24;;;;;;;8.13;7.37;;;;;;;0.20;100.00;98143.56;4968965;28;20224;-52
2022/03/15 03:19:52;;;;;;;10.07;7.40;;;;;;;0.15;100.00;98143.00;4989640;28;20931;-58
2022/03/15 03:22:21;;;;;;;6.83;6.23;;;;;;;0.17;100.00;98143.72;4947391;28;20216;-58
2022/03/15 03:24:50;;;;;;;8.30;6.97;;;;;;;0.23;100.00;98142.53;4991841;28;20620;-58
2022/03/15 03:27:19;;;;;;;9.93;6.93;;;;;;;0.19;100.00;98125.41;4983834;28;20226;-58
2022/03/15 03:29:48;;;;;;;8.10;7.30;;;;;;;0.28;100.00;98143.94;4959141;28;20676;-57
2022/03/15 03:32:17;;;;;;;8.57;7.73;;;;;;;0.27;100.00;98136.19;4967388;28;20214;-59
2022/03/15 03:34:46;;;;;;;7.90;6.80;;;;;;;0.28;100.00;98133.50;4991393;28;20255;-56
2022/03/15 03:37:14;;;;;;;8.83;7.83;;;;;;;0.15;100.00;98119.53;4973985;28;20243;-58
2022/03/15 03:39:42;;;;;;;7.80;7.03;;;;;;;0.22;100.00;98138.25;4970025;28;20304;-53
2022/03/15 03:42:11;;;;;;;10.43;8.30;;;;;;;0.17;100.00;98130.69;4989169;28;20212;-57
2022/03/15 03:44:42;;;;;;;8.10;7.40;;;;;;;0.13;100.00;98130.06;4954687;28;20932;-56
2022/03/15 03:47:12;;;;;;;11.63;7.47;;;;;;;0.05;100.00;98123.66;4987333;28;20319;-56
2022/03/15 03:49:41;;;;;;;11.53;6.60;;;;;;;0.07;100.00;98122.63;4975074;28;20208;-58
2022/03/15 03:52:11;;;;;;;8.80;7.13;;;;;;;0.19;100.00;98122.78;4983581;28;20259;-58
2022/03/15 03:54:39;;;;;;;7.40;6.80;;;;;;;0.00;100.00;98121.34;4967742;28;20205;-52
2022/03/15 03:57:08;;;;;;;9.33;7.33;;;;;;;0.12;100.00;98122.31;4990312;28;20811;-57
2022/03/15 03:59:36;;;;;;;7.70;7.00;;;;;;;0.10;100.00;98130.25;4954201;28;21623;-56
2022/03/15 04:02:05;;;;;;;8.23;7.43;;;;;;;0.10;100.00;98129.41;4991257;28;20211;-58
2022/03/15 04:04:34;;;;;;;10.93;7.47;;;;;;;0.02;100.00;98135.13;4969020;28;20857;-60
2022/03/15 04:07:08;;;;;;;7.43;6.77;;;;;;;0.04;100.00;98138.47;4987579;28;20224;-59
2022/03/15 04:09:36;;;;;;;8.40;7.60;;;;;;;0.17;100.00;98141.13;4963157;28;20217;-56
2022/03/15 04:12:06;;;;;;;7.97;7.30;;;;;;;0.03;100.00;98133.31;4987598;28;20209;-58
2022/03/15 04:14:35;;;;;;;7.93;6.70;;;;;;;-0.04;100.00;98135.47;4953709;28;21545;-60
2022/03/15 04:17:06;;;;;;;7.93;7.27;;;;;;;-0.07;100.00;98130.44;4987033;28;20233;-57
2022/03/15 04:19:36;;;;;;;7.87;7.17;;;;;;;0.04;100.00;98137.59;4986427;28;20964;-56
2022/03/15 04:22:05;;;;;;;9.60;8.70;;;;;;;-0.09;100.00;98137.50;4967040;28;20209;-57
2022/03/15 04:24:33;;;;;;;8.90;7.10;;;;;;;-0.30;100.00;98125.69;4969648;28;20259;-55
2022/03/15 04:27:02;;;;;;;9.47;6.97;;;;;;;-0.19;100.00;98126.81;4977460;28;20233;-56
2022/03/15 04:29:30;;;;;;;7.80;7.10;;;;;;;-0.03;100.00;98124.09;4986832;28;20197;-50
2022/03/15 04:31:59;;;;;;;10.00;7.47;;;;;;;-0.02;100.00;98121.41;4948250;28;20213;-58
2022/03/15 04:34:28;;;;;;;8.90;6.97;;;;;;;-0.08;100.00;98116.59;4986654;28;20284;-59
2022/03/15 04:36:58;;;;;;;7.70;6.90;;;;;;;-0.18;100.00;98123.31;4965971;28;20236;-55
2022/03/15 04:39:27;;;;;;;9.50;7.50;;;;;;;-0.19;100.00;98121.59;4959045;28;20221;-55
2022/03/15 04:41:56;;;;;;;11.37;6.93;;;;;;;-0.10;100.00;98121.06;4971376;28;20350;-57
2022/03/15 04:44:24;;;;;;;7.70;6.93;;;;;;;0.02;100.00;98121.22;4986660;28;20226;-58
2022/03/15 04:46:53;;;;;;;6.73;6.13;;;;;;;-0.07;100.00;98117.41;4924421;28;20811;-51
2022/03/15 04:49:21;;;;;;;8.00;6.63;;;;;;;-0.14;100.00;98114.38;4983879;28;20711;-58
2022/03/15 04:51:50;;;;;;;10.30;6.73;;;;;;;-0.12;100.00;98115.09;4966540;28;20219;-56
2022/03/15 04:54:20;;;;;;;7.78;6.07;;;;;;;-0.24;100.00;98114.09;4931379;28;20207;-57
2022/03/15 04:56:49;;;;;;;8.97;7.80;;;;;;;-0.25;100.00;98114.16;4967909;28;20204;-56
2022/03/15 04:59:17;;;;;;;7.87;7.10;;;;;;;-0.28;100.00;98106.53;4963375;28;20208;-56
2022/03/15 05:01:45;;;;;;;7.83;6.87;;;;;;;-0.17;100.00;98106.75;4954830;28;20219;-57
2022/03/15 05:04:13;;;;;;;6.00;5.50;;;;;;;-0.16;100.00;98106.63;4982873;28;20928;-59
2022/03/15 05:06:42;;;;;;;9.97;7.07;;;;;;;-0.20;100.00;98099.94;4987719;28;21009;-57
2022/03/15 05:09:10;;;;;;;8.03;7.23;;;;;;;-0.24;100.00;98095.00;4922069;28;20566;-60
2022/03/15 05:11:44;;;;;;;8.10;6.70;;;;;;;-0.22;100.00;98091.38;4985488;28;20205;-58
2022/03/15 05:14:12;;;;;;;7.13;6.43;;;;;;;-0.25;100.00;98093.31;4954818;28;20236;-62
2022/03/15 05:16:41;;;;;;;8.13;6.90;;;;;;;-0.27;100.00;98087.38;4963395;28;20217;-54
2022/03/15 05:19:10;;;;;;;8.07;6.87;;;;;;;-0.23;100.00;98094.06;4986166;28;21082;-58
2022/03/15 05:21:38;;;;;;;9.90;7.78;;;;;;;-0.36;100.00;98092.22;4988403;28;20453;-57
2022/03/15 05:24:07;;;;;;;7.97;7.27;;;;;;;-0.33;100.00;98099.84;4940651;28;20450;-57
2022/03/15 05:26:36;;;;;;;8.50;7.33;;;;;;;-0.30;100.00;98091.84;4983222;28;20313;-58
2022/03/15 05:29:05;;;;;;;10.20;6.77;;;;;;;-0.33;100.00;98088.59;4952228;28;20197;-55
2022/03/15 05:31:35;;;;;;;9.43;6.75;;;;;;;-0.30;100.00;98091.84;4985345;28;20458;-59
2022/03/15 05:34:04;;;;;;;7.30;6.63;;;;;;;-0.21;100.00;98090.44;4950169;28;20240;-57
2022/03/15 05:36:32;;;;;;;9.00;8.10;;;;;;;-0.23;100.00;98086.25;4987889;28;20546;-53
2022/03/15 05:39:00;;;;;;;8.30;7.10;;;;;;;-0.30;100.00;98084.03;4926549;28;20243;-59
2022/03/15 05:41:28;;;;;;;8.67;7.23;;;;;;;-0.25;100.00;98081.16;4991139;28;20713;-55
2022/03/15 05:43:57;;;;;;;7.55;6.78;;;;;;;-0.31;100.00;98081.53;4957621;28;21284;-59
2022/03/15 05:46:27;;;;;;;7.97;7.17;;;;;;;-0.37;100.00;98074.09;4984743;28;20205;-53
2022/03/15 05:48:56;;;;;;;8.48;7.72;;;;;;;-0.24;100.00;98080.22;4948796;28;20541;-57
2022/03/15 05:51:24;;;;;;;7.77;7.07;;;;;;;-0.40;100.00;98088.13;4984249;28;20569;-57
2022/03/15 05:53:52;;;;;;;9.50;8.35;;;;;;;-0.25;100.00;98091.56;4959643;28;20458;-57
2022/03/15 05:56:21;;;;;;;8.03;7.33;;;;;;;-0.25;100.00;98081.16;4960466;28;21046;-56
2022/03/15 05:58:49;;;;;;;7.40;6.67;;;;;;;-0.26;100.00;98076.03;4969839;28;21060;-55
2022/03/15 06:01:17;;;;;;;7.60;6.90;;;;;;;-0.15;100.00;98081.44;4970890;28;20831;-57
2022/03/15 06:03:48;;;;;;;8.40;6.60;;;;;;;-0.13;100.00;98082.16;4975979;28;20227;-59
2022/03/15 06:06:16;;;;;;;7.47;6.70;;;;;;;-0.15;100.00;98079.66;4967170;28;20205;-56
2022/03/15 06:08:45;;;;;;;7.83;6.73;;;;;;;0.01;100.00;98073.50;4972745;28;20243;-56
2022/03/15 06:11:13;;;;;;;7.63;6.37;;;;;;;0.02;100.00;98076.94;4958885;28;20209;-55
2022/03/15 06:13:42;;;;;;;6.90;6.20;;;;;;;-0.04;100.00;98080.75;4989803;28;20324;-58
2022/03/15 06:16:10;;;;;;;7.57;6.60;;;;;;;-0.12;100.00;98076.03;4954168;28;20209;-52
2022/03/15 06:18:39;;;;;;;9.38;8.45;;;;;;;0.12;100.00;98075.41;4955376;28;20530;-59
2022/03/15 06:21:08;;;;;;;9.13;7.00;;;;;;;0.18;100.00;98067.22;4949431;28;20216;-57
2022/03/15 06:23:37;;;;;;;6.97;6.27;;;;;;;0.29;100.00;98066.53;4956999;28;20223;-60
2022/03/15 06:27:03;;;;;;;8.40;7.30;;;;;;;0.35;100.00;98065.31;4949063;28;20458;-57
2022/03/15 06:29:32;;;;;;;10.63;7.82;;;;;;;0.32;100.00;98068.13;4965437;28;21048;-54
2022/03/15 06:32:01;;;;;;;7.90;7.13;;;;;;;0.34;100.00;98074.06;4950645;28;20217;-57
2022/03/15 06:34:49;;;;;;;6.33;5.73;;;;;;;0.47;100.00;98067.13;4983563;28;20200;-59
2022/03/15 06:37:20;;;;;;;7.63;6.07;;;;;;;0.71;100.00;98069.09;4938699;28;20231;-58
2022/03/15 06:39:48;;;;;;;9.05;8.15;;;;;;;0.90;100.00;98075.72;4972982;28;20535;-57
2022/03/15 06:42:17;;;;;;;9.37;8.47;;;;;;;1.12;100.00;98072.53;4968735;28;20535;-58
2022/03/15 06:44:46;;;;;;;7.97;7.20;;;;;;;1.20;100.00;98058.97;4971809;28;20228;-56
2022/03/15 06:47:14;;;;;;;11.07;7.40;;;;;;;0.99;100.00;98062.91;4972673;28;20748;-59
2022/03/15 06:49:43;;;;;;;8.80;8.10;;;;;;;1.12;100.00;98067.28;4968348;28;20295;-60
2022/03/15 06:52:12;;;;;;;8.30;6.57;;;;;;;1.17;100.00;98075.69;4952777;28;20463;-55
2022/03/15 06:54:42;;;;;;;9.23;8.43;;;;;;;1.46;100.00;98074.66;4950389;28;20523;-58
2022/03/15 06:57:10;;;;;;;9.87;6.90;;;;;;;1.27;100.00;98071.50;4973619;28;20320;-54
2022/03/15 06:59:39;;;;;;;8.80;7.33;;;;;;;1.19;100.00;98072.94;4975993;28;20295;-57
2022/03/15 07:02:07;;;;;;;6.37;5.77;;;;;;;1.29;100.00;98067.03;4990584;28;20205;-56
2022/03/15 07:04:37;;;;;;;7.97;7.27;;;;;;;1.57;100.00;98066.91;4943812;28;20232;-54
2022/03/15 07:07:05;;;;;;;7.27;6.57;;;;;;;1.53;100.00;98066.31;4951038;28;20374;-54
2022/03/15 07:09:33;;;;;;;6.50;5.90;;;;;;;1.68;100.00;98066.19;4964484;28;20209;-54
2022/03/15 07:12:04;;;;;;;8.47;6.37;;;;;;;1.85;100.00;98068.44;4989889;28;20210;-55
2022/03/15 07:14:32;;;;;;;6.87;6.20;;;;;;;1.97;100.00;98074.59;4969062;28;20283;-54
2022/03/15 07:17:01;;;;;;;7.70;6.43;;;;;;;2.14;100.00;98069.97;4974556;28;20240;-52
2022/03/15 07:19:30;;;;;;;8.00;6.43;;;;;;;2.00;100.00;98076.19;4946986;28;20268;-59
2022/03/15 07:21:59;;;;;;;8.57;5.97;;;;;;;2.36;100.00;98071.91;4988754;28;20259;-54
2022/03/15 07:24:27;;;;;;;7.20;6.60;;;;;;;2.40;100.00;98065.50;4934658;28;20227;-60
2022/03/15 07:26:56;;;;;;;9.80;7.23;;;;;;;2.24;100.00;98060.53;4987766;28;20267;-55
2022/03/15 07:29:26;;;;;;;8.77;6.93;;;;;;;2.41;100.00;98058.47;4966588;28;20214;-57
2022/03/15 07:31:56;;;;;;;7.07;6.47;;;;;;;2.51;100.00;98056.03;4977304;28;20303;-56
2022/03/15 07:34:24;;;;;;;7.70;6.93;;;;;;;2.54;100.00;98043.56;4952271;28;20732;-58
2022/03/15 07:36:53;;;;;;;8.20;6.87;;;;;;;2.70;100.00;98050.28;4983645;28;20216;-52
2022/03/15 07:39:21;;;;;;;7.20;6.57;;;;;;;2.74;100.00;98051.72;4941946;28;20780;-55
2022/03/15 07:41:52;;;;;;;7.20;6.50;;;;;;;2.71;100.00;98051.94;4971739;28;20323;-56
2022/03/15 07:44:20;;;;;;;8.60;7.33;;;;;;;2.83;100.00;98042.38;4968614;28;20226;-56
2022/03/15 07:46:50;;;;;;;7.53;6.83;;;;;;;3.03;100.00;98046.13;4973921;28;20573;-52
2022/03/15 07:49:20;;;;;;;7.07;6.37;;;;;;;2.85;100.00;98043.94;4978958;28;20268;-59
2022/03/15 07:51:50;;;;;;;6.77;5.93;;;;;;;3.10;100.00;98039.47;4980963;28;20637;-56
2022/03/15 07:54:18;;;;;;;8.00;6.37;;;;;;;3.26;100.00;98039.13;4947638;28;20227;-55
2022/03/15 07:56:47;;;;;;;8.77;6.60;;;;;;;3.33;100.00;98040.34;4970221;28;20454;-55
2022/03/15 07:59:20;;;;;;;7.73;7.03;;;;;;;3.33;100.00;98026.41;4985429;28;20247;-58
2022/03/15 08:01:50;;;;;;;8.10;7.07;;;;;;;3.62;100.00;98032.03;4963784;28;20239;-56
2022/03/15 08:04:18;;;;;;;8.37;7.13;;;;;;;3.72;100.00;98026.91;4987441;28;20210;-54
2022/03/15 08:06:47;;;;;;;7.53;6.80;;;;;;;3.79;100.00;98029.06;4965141;28;20882;-57
2022/03/15 08:09:15;;;;;;;7.37;6.70;;;;;;;3.75;100.00;98037.16;4947296;28;20220;-59
2022/03/15 08:11:45;;;;;;;7.83;7.13;;;;;;;3.74;100.00;98039.88;4967270;28;20428;-57
2022/03/15 08:14:14;;;;;;;7.23;6.53;;;;;;;3.79;100.00;98044.78;4992222;28;20229;-57
2022/03/15 08:16:43;;;;;;;11.83;8.53;;;;;;;4.17;100.00;98046.16;4951699;28;20386;-54
2022/03/15 08:19:13;;;;;;;11.37;7.33;;;;;;;4.31;100.00;98038.03;4988280;28;20208;-55
2022/03/15 08:21:42;;;;;;;8.50;7.40;;;;;;;4.53;100.00;98033.69;4962905;28;20487;-56
2022/03/15 08:24:10;;;;;;;7.70;7.00;;;;;;;4.49;100.00;98022.59;4944721;28;20510;-55
2022/03/15 08:26:39;;;;;;;10.47;7.63;;;;;;;4.84;100.00;98018.03;4978769;28;20240;-57
2022/03/15 08:29:08;;;;;;;8.57;7.33;;;;;;;5.02;100.00;98014.84;4995470;28;20219;-55
2022/03/15 08:31:36;;;;;;;8.60;7.53;;;;;;;4.87;100.00;98017.78;4968838;28;20211;-57
2022/03/15 08:34:04;;;;;;;9.03;7.43;;;;;;;5.00;100.00;98011.50;4976845;28;20219;-56
2022/03/15 08:36:36;;;;;;;9.93;6.57;;;;;;;5.21;100.00;98020.22;4966631;28;20723;-53
2022/03/15 08:39:04;;;;;;;11.07;7.10;;;;;;;5.12;100.00;98025.41;4989472;28;20764;-54
2022/03/15 08:41:33;;;;;;;8.53;7.70;;;;;;;5.21;100.00;98014.97;4953968;28;20210;-53
2022/03/15 08:44:01;;;;;;;9.50;8.13;;;;;;;5.06;100.00;98011.84;4973393;28;20240;-56
2022/03/15 08:46:30;;;;;;;8.33;7.63;;;;;;;5.21;100.00;98011.50;4975254;28;20793;-56
2022/03/15 08:48:58;;;;;;;7.73;6.87;;;;;;;5.52;100.00;98008.88;4980030;28;20348;-59
2022/03/15 08:51:27;;;;;;;8.37;7.57;;;;;;;5.47;100.00;98013.72;4950556;28;20231;-59
2022/03/15 08:53:56;;;;;;;9.60;8.63;;;;;;;5.60;100.00;98014.31;4984647;28;20478;-58
2022/03/15 08:56:24;;;;;;;7.90;7.20;;;;;;;5.54;100.00;98006.97;4936097;28;20839;-58
2022/03/15 08:58:53;;;;;;;6.63;5.87;;;;;;;5.87;100.00;98012.06;4964942;28;20863;-58
2022/03/15 09:01:21;;;;;;;8.80;7.03;;;;;;;5.70;100.00;98009.09;4988154;28;20280;-56
2022/03/15 09:04:03;;;;;;;7.37;6.67;;;;;;;5.92;100.00;98002.00;4956891;28;20208;-55
2022/03/15 09:06:31;;;;;;;7.30;6.70;;;;;;;6.19;100.00;98014.53;4970937;28;20312;-54
2022/03/15 09:09:01;;;;;;;8.37;7.37;;;;;;;6.26;100.00;98012.22;4967276;28;20355;-58
2022/03/15 09:11:30;;;;;;;11.07;7.13;;;;;;;6.32;100.00;98009.03;4952173;28;20221;-56
2022/03/15 09:13:59;;;;;;;13.80;7.43;;;;;;;6.55;100.00;97998.22;4956337;28;20230;-54
2022/03/15 09:16:28;;;;;;;7.07;6.37;;;;;;;6.72;100.00;97998.50;4985504;28;21053;-56
2022/03/15 09:18:57;;;;;;;12.97;6.90;;;;;;;7.28;100.00;97991.63;4971254;28;20929;-55
2022/03/15 09:21:26;;;;;;;7.50;6.77;;;;;;;7.34;100.00;97992.84;4974721;28;20220;-53
2022/03/15 09:23:57;;;;;;;8.40;7.37;;;;;;;7.51;100.00;97980.72;4963415;28;20287;-58
2022/03/15 09:26:27;;;;;;;7.03;6.33;;;;;;;7.66;100.00;97979.28;4985072;28;20855;-58
2022/03/15 09:28:56;;;;;;;7.23;6.63;;;;;;;7.84;100.00;97977.69;4942583;28;20247;-53
2022/03/15 09:31:24;;;;;;;7.97;7.27;;;;;;;8.19;100.00;97976.09;4973584;28;20210;-53
2022/03/15 09:33:53;;;;;;;7.63;6.80;;;;;;;8.24;100.00;97976.47;4971447;28;20678;-58
2022/03/15 09:36:21;;;;;;;9.53;7.17;;;;;;;8.59;100.00;97968.72;4971530;28;20718;-59
2022/03/15 09:38:50;;;;;;;9.33;6.73;;;;;;;8.90;100.00;97963.88;4963524;28;20256;-58
2022/03/15 09:41:18;;;;;;;7.50;6.77;;;;;;;9.16;100.00;97962.22;4986342;28;20228;-57
2022/03/15 09:43:49;;;;;;;10.15;7.68;;;;;;;9.27;100.00;97949.53;4949291;28;21167;-58
2022/03/15 09:46:18;;;;;;;8.90;6.82;;;;;;;9.30;100.00;97945.75;4969302;28;20492;-53
2022/03/15 09:49:07;;;;;;;7.40;6.70;;;;;;;9.21;100.00;97950.16;4969472;28;20469;-55
2022/03/15 09:51:36;;;;;;;7.73;6.83;;;;;;;9.41;100.00;97942.84;4974117;28;20310;-54
2022/03/15 09:54:07;;;;;;;7.70;6.95;;;;;;;9.64;100.00;97934.34;4967512;28;20506;-57
2022/03/15 09:56:38;;;;;;;8.15;7.18;;;;;;;9.56;100.00;97937.78;4990285;28;20486;-56
2022/03/15 09:59:10;;;;;;;8.60;6.53;;;;;;;9.48;100.00;97918.41;4949167;28;20223;-54
2022/03/15 10:01:39;;;;;;;7.13;6.50;;;;;;;9.39;100.00;97930.78;4972358;28;20209;-58
2022/03/15 10:04:08;;;;;;;8.30;7.50;;;;;;;9.73;100.00;97931.72;4986733;28;20548;-55
2022/03/15 10:06:37;;;;;;;9.07;6.93;;;;;;;9.66;100.00;97931.53;4975205;28;20359;-59
2022/03/15 10:09:06;;;;;;;7.40;6.77;;;;;;;9.64;100.00;97934.34;4957293;28;20888;-55
2022/03/15 10:11:35;;;;;;;7.90;6.30;;;;;;;9.73;100.00;97939.66;4985462;28;20236;-55
2022/03/15 10:14:04;;;;;;;7.43;6.73;;;;;;;9.80;100.00;97932.75;4944423;28;21272;-57
2022/03/15 10:16:40;;;;;;;9.07;8.17;;;;;;;9.74;100.00;97928.94;4970753;28;20227;-55
2022/03/15 10:19:09;;;;;;;8.20;7.10;;;;;;;10.09;100.00;97916.47;4984881;28;20529;-53
2022/03/15 10:21:44;;;;;;;9.53;7.40;;;;;;;10.11;100.00;97917.13;4971749;28;20213;-56
2022/03/15 10:24:18;;;;;;;9.53;6.97;;;;;;;10.30;100.00;97928.38;4973113;28;20295;-56
2022/03/15 10:26:47;;;;;;;7.07;6.47;;;;;;;10.39;100.00;97924.75;4966975;28;20231;-57
2022/03/15 10:29:17;;;;;;;8.77;6.43;;;;;;;10.69;100.00;97909.22;4944958;28;20221;-52
2022/03/15 10:31:47;;;;;;;7.63;6.93;;;;;;;10.24;100.00;97923.75;4968227;28;20674;-55
2022/03/15 10:34:17;;;;;;;8.27;6.93;;;;;;;10.19;100.00;97920.75;4982501;28;20204;-59
2022/03/15 10:36:47;;;;;;;7.73;7.03;;;;;;;10.36;100.00;97913.66;4966247;28;20228;-56
2022/03/15 10:39:19;;;;;;;9.30;6.97;;;;;;;10.44;100.00;97900.44;4974494;28;20295;-53
2022/03/15 10:41:52;;;;;;;8.20;6.77;;;;;;;10.76;100.00;97898.78;4965233;28;20336;-58
2022/03/15 10:44:22;;;;;;;7.87;7.03;;;;;;;10.78;100.00;97894.13;4948663;28;20299;-58
2022/03/15 10:47:04;;;;;;;8.10;7.10;;;;;;;10.83;100.00;97899.75;4970080;28;20969;-60
2022/03/15 10:49:34;;;;;;;13.57;7.67;;;;;;;11.08;100.00;97907.69;4987778;28;20201;-57
2022/03/15 10:52:02;;;;;;;9.17;7.47;;;;;;;11.40;100.00;97897.13;4967942;28;20299;-55
2022/03/15 10:54:30;;;;;;;8.70;7.83;;;;;;;11.27;99.39;97897.66;4984754;28;20282;-55
2022/03/15 10:57:00;;;;;;;11.45;8.00;;;;;;;11.51;99.78;97903.91;4948275;28;21361;-55
2022/03/15 10:59:29;;;;;;;7.97;7.27;;;;;;;11.40;100.00;97887.38;4984113;28;20240;-53
2022/03/15 11:01:57;;;;;;;12.37;8.50;;;;;;;11.44;100.00;97877.22;4931292;28;20227;-57
2022/03/15 11:04:27;;;;;;;9.30;7.83;;;;;;;11.28;100.00;97873.63;4979967;28;20229;-57
2022/03/15 11:06:56;;;;;;;9.30;7.67;;;;;;;11.86;92.11;97876.00;4977882;28;20225;-60
2022/03/15 11:09:25;;;;;;;9.20;8.30;;;;;;;11.78;89.63;97872.59;4970132;28;20864;-56
2022/03/15 11:11:58;;;;;;;9.77;8.00;;;;;;;11.96;84.94;97869.66;4950509;28;20748;-60
2022/03/15 11:14:39;;;;;;;8.23;7.43;;;;;;;11.40;93.11;97860.00;4982257;28;20319;-57
2022/03/15 11:17:10;;;;;;;10.03;8.07;;;;;;;11.84;92.60;97850.66;4951547;28;20232;-53
2022/03/15 11:19:45;;;;;;;16.50;9.33;;;;;;;11.81;92.10;97830.56;4970409;28;20283;-58
2022/03/15 11:22:15;;;;;;;8.57;7.77;;;;;;;11.86;95.27;97830.06;4987467;28;20201;-56
2022/03/15 11:24:45;;;;;;;8.53;7.73;;;;;;;11.96;93.18;97829.81;4968661;28;20334;-57
2022/03/15 11:27:17;;;;;;;8.17;7.37;;;;;;;12.16;85.84;97817.75;4971419;28;20955;-55
2022/03/15 11:29:46;;;;;;;11.93;8.53;;;;;;;12.20;84.34;97802.28;4967221;28;20216;-55
2022/03/15 11:32:15;;;;;;;11.20;7.70;;;;;;;12.52;81.43;97810.13;4955068;28;20307;-60
2022/03/15 11:34:45;;;;;;;9.07;7.43;;;;;;;12.42;85.60;97807.72;4967253;28;20214;-57
2022/03/15 11:37:14;;;;;;;9.63;8.63;;;;;;;12.71;83.88;97796.31;4982706;28;20554;-54
2022/03/15 11:39:43;;;;;;;8.77;8.03;;;;;;;12.63;76.96;97793.72;4980837;28;20204;-61